createdAt,value
2022-08-18T00:01:10.783Z,100.00
2022-08-18T00:03:54.132Z,100.00
2022-08-18T00:06:24.617Z,100.00
2022-08-18T00:08:55.876Z,100.00
2022-08-18T00:11:23.821Z,100.00
2022-08-18T00:13:50.556Z,100.00
2022-08-18T00:16:17.232Z,100.00
2022-08-18T00:18:44.041Z,100.00
2022-08-18T00:21:10.720Z,100.00
2022-08-18T00:23:38.787Z,100.00
2022-08-18T00:26:05.869Z,100.00
2022-08-18T00:28:32.535Z,100.00
2022-08-18T00:30:59.282Z,100.00
2022-08-18T00:33:26.419Z,100.00
2022-08-18T00:35:53.396Z,100.00
2022-08-18T00:38:24.755Z,100.00
2022-08-18T00:40:54.431Z,100.00
2022-08-18T00:43:46.086Z,100.00
2022-08-18T00:46:19.410Z,100.00
2022-08-18T00:48:48.429Z,100.00
2022-08-18T00:51:31.671Z,100.00
2022-08-18T00:54:03.900Z,100.00
2022-08-18T00:56:36.094Z,100.00
2022-08-18T00:59:17.187Z,100.00
2022-08-18T01:01:47.946Z,100.00
2022-08-18T01:04:18.672Z,100.00
2022-08-18T01:06:49.208Z,100.00
2022-08-18T01:09:17.910Z,100.00
2022-08-18T01:11:45.081Z,100.00
2022-08-18T01:14:15.931Z,100.00
2022-08-18T01:17:01.741Z,100.00
2022-08-18T01:19:47.421Z,100.00
2022-08-18T01:22:37.783Z,100.00
2022-08-18T01:25:26.370Z,100.00
2022-08-18T01:27:57.130Z,100.00
2022-08-18T01:30:28.233Z,100.00
2022-08-18T01:32:55.193Z,100.00
2022-08-18T01:35:23.806Z,100.00
2022-08-18T01:37:50.733Z,100.00
2022-08-18T01:41:01.090Z,100.00
2022-08-18T01:43:05.697Z,100.00
2022-08-18T01:45:33.548Z,100.00
2022-08-18T01:48:00.833Z,100.00
2022-08-18T01:50:28.031Z,100.00
2022-08-18T01:52:54.766Z,100.00
2022-08-18T01:55:21.889Z,100.00
2022-08-18T01:57:48.631Z,100.00
2022-08-18T02:00:18.036Z,100.00
2022-08-18T02:02:45.269Z,100.00
2022-08-18T02:05:18.343Z,100.00
2022-08-18T02:07:45.195Z,100.00
2022-08-18T02:10:16.280Z,100.00
2022-08-18T02:12:43.771Z,100.00
2022-08-18T02:15:10.938Z,100.00
2022-08-18T02:17:39.514Z,100.00
2022-08-18T02:20:08.186Z,100.00
2022-08-18T02:22:34.952Z,100.00
2022-08-18T02:25:01.692Z,100.00
2022-08-18T02:27:28.885Z,100.00
2022-08-18T02:29:55.606Z,100.00
2022-08-18T02:32:22.297Z,100.00
2022-08-18T02:34:51.097Z,100.00
2022-08-18T02:37:17.863Z,100.00
2022-08-18T02:39:44.923Z,100.00
2022-08-18T02:42:14.840Z,100.00
2022-08-18T02:44:41.804Z,100.00
2022-08-18T02:47:08.844Z,100.00
2022-08-18T02:49:36.880Z,100.00
2022-08-18T02:52:04.286Z,100.00
2022-08-18T02:54:31.267Z,100.00
2022-08-18T02:56:57.990Z,100.00
2022-08-18T02:59:27.535Z,100.00
2022-08-18T03:01:56.421Z,100.00
2022-08-18T03:04:29.630Z,100.00
2022-08-18T03:07:00.318Z,100.00
2022-08-18T03:09:27.780Z,100.00
2022-08-18T03:11:54.626Z,100.00
2022-08-18T03:14:21.811Z,100.00
2022-08-18T03:16:53.689Z,100.00
2022-08-18T03:19:26.556Z,100.00
2022-08-18T03:21:55.040Z,100.00
2022-08-18T03:24:26.627Z,100.00
2022-08-18T03:26:55.735Z,100.00
2022-08-18T03:29:26.536Z,100.00
2022-08-18T03:31:56.209Z,100.00
2022-08-18T03:34:22.866Z,100.00
2022-08-18T03:36:51.228Z,100.00
2022-08-18T03:39:19.174Z,100.00
2022-08-18T03:41:59.721Z,100.00
2022-08-18T03:44:30.903Z,100.00
2022-08-18T03:46:58.348Z,100.00
2022-08-18T03:49:26.843Z,100.00
2022-08-18T03:51:53.733Z,100.00
2022-08-18T03:54:20.510Z,100.00
2022-08-18T03:56:49.375Z,100.00
2022-08-18T03:59:23.584Z,100.00
2022-08-18T04:01:51.890Z,100.00
2022-08-18T04:04:22.629Z,100.00
2022-08-18T04:06:54.289Z,100.00
2022-08-18T04:09:23.066Z,100.00
2022-08-18T04:11:49.999Z,100.00
2022-08-18T04:14:18.963Z,100.00
2022-08-18T04:16:46.128Z,100.00
2022-08-18T04:19:13.825Z,100.00
2022-08-18T04:21:42.427Z,100.00
2022-08-18T04:24:11.498Z,100.00
2022-08-18T04:26:41.688Z,100.00
2022-08-18T04:29:09.531Z,100.00
2022-08-18T04:31:36.710Z,100.00
2022-08-18T04:34:03.882Z,100.00
2022-08-18T04:36:34.210Z,100.00
2022-08-18T04:39:01.343Z,100.00
2022-08-18T04:41:29.578Z,100.00
2022-08-18T04:44:03.173Z,100.00
2022-08-18T04:46:31.098Z,100.00
2022-08-18T04:49:00.996Z,100.00
2022-08-18T04:52:26.686Z,100.00
2022-08-18T04:54:16.315Z,100.00
2022-08-18T04:56:43.660Z,100.00
2022-08-18T04:59:12.549Z,100.00
2022-08-18T05:01:48.161Z,100.00
2022-08-18T05:04:16.797Z,100.00
2022-08-18T05:06:44.623Z,100.00
2022-08-18T05:09:16.806Z,100.00
2022-08-18T05:11:52.604Z,100.00
2022-08-18T05:14:20.145Z,100.00
2022-08-18T05:16:48.608Z,100.00
2022-08-18T05:19:23.302Z,100.00
2022-08-18T05:21:59.616Z,100.00
2022-08-18T05:24:32.207Z,100.00
2022-08-18T05:27:04.194Z,100.00
2022-08-18T05:29:36.719Z,100.00
2022-08-18T05:32:09.423Z,100.00
2022-08-18T05:34:36.215Z,100.00
2022-08-18T05:37:35.600Z,100.00
2022-08-18T05:40:10.825Z,100.00
2022-08-18T05:42:39.506Z,100.00
2022-08-18T05:45:13.609Z,100.00
2022-08-18T05:47:40.338Z,100.00
2022-08-18T05:50:17.303Z,100.00
2022-08-18T05:52:51.000Z,100.00
2022-08-18T05:55:58.240Z,100.00
2022-08-18T05:58:33.219Z,100.00
2022-08-18T06:01:32.075Z,100.00
2022-08-18T06:04:06.737Z,100.00
2022-08-18T06:06:34.151Z,100.00
2022-08-18T06:09:18.187Z,100.00
2022-08-18T06:11:45.681Z,100.00
2022-08-18T06:14:13.546Z,100.00
2022-08-18T06:16:40.146Z,100.00
2022-08-18T06:19:16.041Z,100.00
2022-08-18T06:22:01.325Z,100.00
2022-08-18T06:24:46.875Z,100.00
2022-08-18T06:27:26.098Z,100.00
2022-08-18T06:30:13.085Z,100.00
2022-08-18T06:33:02.387Z,100.00
2022-08-18T06:35:48.496Z,100.00
2022-08-18T06:38:36.694Z,100.00
2022-08-18T06:41:41.721Z,100.00
2022-08-18T06:44:48.948Z,100.00
2022-08-18T06:47:28.727Z,100.00
2022-08-18T06:50:21.664Z,100.00
2022-08-18T06:53:07.964Z,100.00
2022-08-18T06:55:54.604Z,100.00
2022-08-18T06:58:30.640Z,100.00
2022-08-18T07:01:05.506Z,100.00
2022-08-18T07:03:46.699Z,100.00
2022-08-18T07:06:21.295Z,100.00
2022-08-18T07:08:53.786Z,100.00
2022-08-18T07:11:28.137Z,100.00
2022-08-18T07:14:14.941Z,100.00
2022-08-18T07:16:59.551Z,100.00
2022-08-18T07:19:30.065Z,100.00
2022-08-18T07:22:17.019Z,100.00
2022-08-18T07:24:46.538Z,100.00
2022-08-18T07:27:19.729Z,100.00
2022-08-18T07:30:06.074Z,100.00
2022-08-18T07:32:43.082Z,100.00
2022-08-18T07:35:13.633Z,100.00
2022-08-18T07:37:47.544Z,100.00
2022-08-18T07:40:24.328Z,100.00
2022-08-18T07:43:01.093Z,100.00
2022-08-18T07:45:44.837Z,100.00
2022-08-18T07:48:39.921Z,100.00
2022-08-18T07:51:09.791Z,100.00
2022-08-18T07:53:56.312Z,100.00
2022-08-18T07:56:32.890Z,100.00
2022-08-18T07:59:20.416Z,100.00
2022-08-18T08:02:11.426Z,100.00
2022-08-18T08:05:05.005Z,100.00
2022-08-18T08:07:55.536Z,100.00
2022-08-18T08:10:25.681Z,100.00
2022-08-18T08:13:36.956Z,100.00
2022-08-18T08:16:05.368Z,100.00
2022-08-18T08:18:44.346Z,100.00
2022-08-18T08:21:15.585Z,100.00
2022-08-18T08:23:57.511Z,100.00
2022-08-18T08:26:32.314Z,100.00
2022-08-18T08:29:06.892Z,100.00
2022-08-18T08:31:45.995Z,100.00
2022-08-18T08:34:18.858Z,100.00
2022-08-18T08:36:48.008Z,100.00
2022-08-18T08:39:40.785Z,100.00
2022-08-18T08:42:30.658Z,100.00
2022-08-18T08:45:07.432Z,100.00
2022-08-18T08:47:43.224Z,100.00
2022-08-18T08:50:19.995Z,100.00
2022-08-18T08:52:56.728Z,100.00
2022-08-18T08:55:27.491Z,100.00
2022-08-18T08:58:01.258Z,96.83
2022-08-18T09:00:28.538Z,98.56
2022-08-18T09:03:06.945Z,96.54
2022-08-18T09:05:45.190Z,100.00
2022-08-18T09:08:24.098Z,96.96
2022-08-18T09:11:32.705Z,100.00
2022-08-18T09:14:14.373Z,100.00
2022-08-18T09:17:04.653Z,100.00
2022-08-18T09:19:52.268Z,97.88
2022-08-18T09:22:25.065Z,96.86
2022-08-18T09:24:55.023Z,97.28
2022-08-18T09:27:48.462Z,100.00
2022-08-18T09:30:55.158Z,100.00
2022-08-18T09:33:40.681Z,98.25
2022-08-18T09:36:49.522Z,99.05
2022-08-18T09:39:54.374Z,95.71
2022-08-18T09:42:48.329Z,95.40
2022-08-18T09:45:34.305Z,95.07
2022-08-18T09:48:20.699Z,93.78
2022-08-18T09:54:09.920Z,92.35
2022-08-18T09:56:55.734Z,91.64
2022-08-18T09:59:35.420Z,93.21
2022-08-18T10:02:20.050Z,92.44
2022-08-18T10:05:20.902Z,100.00
2022-08-18T10:07:50.420Z,96.75
2022-08-18T10:11:09.270Z,95.00
2022-08-18T10:13:49.744Z,94.90
2022-08-18T10:19:39.592Z,89.77
2022-08-18T10:22:09.372Z,87.76
2022-08-18T10:24:53.293Z,93.22
2022-08-18T10:27:41.991Z,91.62
2022-08-18T10:30:36.486Z,89.67
2022-08-18T10:34:00.819Z,91.21
2022-08-18T10:36:36.177Z,92.01
2022-08-18T10:39:07.890Z,86.93
2022-08-18T10:41:37.452Z,86.05
2022-08-18T10:44:27.636Z,84.95
2022-08-18T10:46:56.397Z,86.60
2022-08-18T10:49:26.238Z,82.33
2022-08-18T10:52:28.219Z,85.15
2022-08-18T10:55:56.538Z,84.93
2022-08-18T10:58:41.748Z,91.04
2022-08-18T11:02:02.537Z,85.69
2022-08-18T11:04:41.690Z,84.39
2022-08-18T11:10:57.712Z,82.99
2022-08-18T11:13:12.605Z,82.51
2022-08-18T11:16:15.485Z,83.00
2022-08-18T11:21:42.547Z,75.22
2022-08-18T11:24:11.875Z,75.38
2022-08-18T11:26:52.392Z,73.41
2022-08-18T11:29:36.551Z,74.48
2022-08-18T11:32:06.075Z,78.23
2022-08-18T11:34:45.533Z,76.44
2022-08-18T11:37:49.468Z,76.18
2022-08-18T11:41:02.356Z,77.41
2022-08-18T11:43:24.883Z,79.20
2022-08-18T11:45:59.230Z,78.29
2022-08-18T11:48:39.035Z,76.50
2022-08-18T11:51:17.481Z,77.00
2022-08-18T11:54:23.198Z,79.35
2022-08-18T11:56:50.432Z,75.75
2022-08-18T11:59:53.287Z,80.76
2022-08-18T12:02:20.668Z,79.86
2022-08-18T12:04:54.454Z,73.85
2022-08-18T12:07:57.899Z,72.86
2022-08-18T12:10:30.772Z,75.38
2022-08-18T12:13:01.424Z,74.05
2022-08-18T12:15:46.295Z,71.52
2022-08-18T12:18:26.181Z,71.43
2022-08-18T12:20:59.453Z,69.88
2022-08-18T12:23:38.527Z,67.88
2022-08-18T12:26:06.382Z,71.62
2022-08-18T12:28:53.199Z,69.20
2022-08-18T12:31:20.212Z,71.19
2022-08-18T12:34:00.081Z,72.26
2022-08-18T12:36:29.881Z,72.30
2022-08-18T12:38:57.258Z,74.95
2022-08-18T12:41:24.653Z,75.21
2022-08-18T12:43:58.783Z,71.84
2022-08-18T12:46:26.384Z,74.70
2022-08-18T12:48:53.674Z,66.93
2022-08-18T12:54:10.533Z,68.52
2022-08-18T12:56:40.394Z,71.17
2022-08-18T12:59:08.265Z,72.05
2022-08-18T13:01:36.744Z,71.91
2022-08-18T13:06:59.919Z,68.90
2022-08-18T13:09:35.305Z,69.22
2022-08-18T13:12:17.608Z,66.32
2022-08-18T13:14:45.369Z,66.85
2022-08-18T13:17:29.627Z,65.86
2022-08-18T13:20:09.583Z,70.88
2022-08-18T13:22:40.279Z,69.79
2022-08-18T13:25:10.626Z,68.18
2022-08-18T13:27:38.345Z,64.00
2022-08-18T13:30:30.131Z,64.63
2022-08-18T13:33:02.746Z,68.36
2022-08-18T13:35:38.122Z,67.64
2022-08-18T13:38:18.832Z,66.56
2022-08-18T13:40:53.151Z,68.61
2022-08-18T13:43:26.055Z,68.24
2022-08-18T13:45:56.056Z,67.86
2022-08-18T13:48:25.865Z,68.93
2022-08-18T13:50:58.432Z,68.21
2022-08-18T13:53:31.714Z,70.04
2022-08-18T13:55:59.285Z,65.40
2022-08-18T13:58:28.104Z,67.28
2022-08-18T14:01:42.419Z,64.35
2022-08-18T14:03:55.534Z,68.62
2022-08-18T14:06:23.926Z,66.73
2022-08-18T14:08:52.584Z,65.31
2022-08-18T14:11:23.778Z,63.79
2022-08-18T14:13:53.086Z,62.90
2022-08-18T14:16:21.169Z,63.50
2022-08-18T14:19:10.135Z,63.15
2022-08-18T14:22:01.407Z,61.49
2022-08-18T14:24:49.759Z,62.78
2022-08-18T14:27:24.508Z,62.54
2022-08-18T14:29:55.219Z,66.82
2022-08-18T14:32:29.419Z,68.71
2022-08-18T14:35:00.753Z,66.18
2022-08-18T14:37:46.154Z,63.89
2022-08-18T14:40:16.463Z,63.12
2022-08-18T14:42:54.841Z,60.34
2022-08-18T14:45:31.706Z,63.08
2022-08-18T14:48:07.454Z,57.16
2022-08-18T14:50:38.163Z,59.31
2022-08-18T14:53:06.290Z,59.91
2022-08-18T14:55:34.164Z,61.31
2022-08-18T14:58:01.349Z,62.84
2022-08-18T15:00:30.198Z,66.70
2022-08-18T15:02:59.443Z,63.65
2022-08-18T15:05:27.593Z,59.12
2022-08-18T15:07:56.297Z,62.22
2022-08-18T15:10:28.007Z,63.60
2022-08-18T15:12:57.782Z,59.43
2022-08-18T15:15:25.613Z,58.19
2022-08-18T15:17:53.313Z,60.89
2022-08-18T15:20:23.835Z,61.56
2022-08-18T15:23:09.229Z,61.36
2022-08-18T15:25:46.393Z,61.83
2022-08-18T15:28:23.746Z,60.47
2022-08-18T15:31:16.507Z,64.92
2022-08-18T15:33:39.620Z,61.79
2022-08-18T15:36:09.782Z,60.75
2022-08-18T15:38:37.178Z,61.49
2022-08-18T15:41:09.266Z,62.76
2022-08-18T15:43:46.019Z,61.89
2022-08-18T15:46:16.749Z,59.79
2022-08-18T15:48:44.012Z,58.13
2022-08-18T15:51:12.167Z,60.45
2022-08-18T15:53:40.077Z,57.86
2022-08-18T15:56:16.435Z,60.97
2022-08-18T15:58:48.696Z,59.30
2022-08-18T16:01:30.570Z,57.93
2022-08-18T16:04:05.578Z,59.44
2022-08-18T16:06:33.380Z,56.69
2022-08-18T16:09:03.818Z,57.90
2022-08-18T16:11:30.965Z,60.63
2022-08-18T16:14:01.080Z,59.42
2022-08-18T16:16:29.633Z,58.03
2022-08-18T16:19:06.861Z,59.58
2022-08-18T16:21:34.083Z,58.95
2022-08-18T16:24:00.784Z,58.29
2022-08-18T16:26:27.702Z,57.53
2022-08-18T16:28:54.434Z,61.01
2022-08-18T16:31:26.617Z,59.33
2022-08-18T16:33:55.289Z,59.53
2022-08-18T16:36:25.760Z,58.13
2022-08-18T16:38:53.981Z,57.86
2022-08-18T16:41:26.861Z,58.42
2022-08-18T16:43:53.639Z,58.71
2022-08-18T16:46:25.280Z,58.21
2022-08-18T16:48:53.457Z,57.42
2022-08-18T16:51:22.038Z,58.85
2022-08-18T16:53:52.195Z,58.96
2022-08-18T16:56:22.869Z,59.68
2022-08-18T16:59:08.154Z,60.10
2022-08-18T17:01:54.352Z,56.95
2022-08-18T17:04:24.049Z,59.00
2022-08-18T17:06:51.051Z,58.94
2022-08-18T17:09:19.396Z,58.96
2022-08-18T17:11:48.105Z,67.92
2022-08-18T17:14:23.777Z,67.18
2022-08-18T17:16:54.487Z,66.57
2022-08-18T17:19:23.329Z,71.75
2022-08-18T17:21:50.541Z,72.54
2022-08-18T17:24:18.638Z,73.24
2022-08-18T17:27:12.001Z,69.96
2022-08-18T17:30:18.216Z,74.19
2022-08-18T17:32:49.965Z,68.96
2022-08-18T17:35:35.289Z,68.77
2022-08-18T17:38:18.831Z,71.81
2022-08-18T17:40:50.598Z,69.91
2022-08-18T17:43:20.143Z,73.23
2022-08-18T17:46:12.687Z,68.79
2022-08-18T17:49:03.414Z,68.98
2022-08-18T17:51:43.485Z,69.75
2022-08-18T17:54:23.604Z,69.02
2022-08-18T17:56:55.257Z,66.80
2022-08-18T17:59:45.807Z,65.95
2022-08-18T18:02:29.316Z,67.09
2022-08-18T18:04:59.693Z,67.00
2022-08-18T18:07:29.526Z,67.38
2022-08-18T18:10:01.506Z,67.00
2022-08-18T18:12:31.395Z,68.22
2022-08-18T18:15:00.498Z,66.34
2022-08-18T18:17:37.821Z,67.20
2022-08-18T18:20:29.726Z,65.32
2022-08-18T18:23:15.905Z,66.64
2022-08-18T18:25:43.467Z,65.72
2022-08-18T18:28:26.248Z,69.57
2022-08-18T18:30:54.098Z,73.28
2022-08-18T18:33:22.683Z,72.97
2022-08-18T18:35:59.226Z,77.65
2022-08-18T18:38:35.211Z,79.07
2022-08-18T18:41:06.960Z,81.29
2022-08-18T18:43:34.391Z,81.94
2022-08-18T18:46:23.075Z,83.34
2022-08-18T18:49:05.018Z,85.17
2022-08-18T18:51:43.840Z,85.06
2022-08-18T18:54:49.619Z,85.90
2022-08-18T18:57:40.058Z,86.64
2022-08-18T19:00:19.698Z,87.83
2022-08-18T19:03:16.906Z,89.28
2022-08-18T19:05:49.846Z,90.27
2022-08-18T19:08:22.062Z,90.20
2022-08-18T19:11:00.316Z,91.35
2022-08-18T19:13:35.141Z,90.77
2022-08-18T19:16:23.749Z,91.84
2022-08-18T19:18:59.798Z,92.71
2022-08-18T19:22:03.855Z,92.89
2022-08-18T19:24:30.044Z,95.09
2022-08-18T19:26:58.570Z,94.59
2022-08-18T19:29:36.359Z,94.75
2022-08-18T19:32:27.100Z,95.63
2022-08-18T19:34:55.800Z,95.18
2022-08-18T19:37:44.772Z,96.70
2022-08-18T19:40:19.844Z,97.26
2022-08-18T19:43:26.579Z,96.36
2022-08-18T19:46:00.528Z,95.77
2022-08-18T19:48:39.320Z,96.27
2022-08-18T19:51:16.187Z,97.04
2022-08-18T19:53:52.454Z,95.95
2022-08-18T19:57:03.515Z,96.87
2022-08-18T19:59:36.318Z,95.68
2022-08-18T20:02:25.341Z,97.80
2022-08-18T20:05:08.495Z,96.40
2022-08-18T20:08:05.046Z,98.73
2022-08-18T20:11:02.363Z,97.61
2022-08-18T20:13:36.715Z,97.62
2022-08-18T20:16:13.565Z,97.97
2022-08-18T20:18:42.753Z,99.70
2022-08-18T20:21:48.421Z,98.42
2022-08-18T20:24:30.735Z,98.91
2022-08-18T20:27:14.992Z,99.49
2022-08-18T20:29:43.656Z,99.93
2022-08-18T20:32:34.588Z,100.00
2022-08-18T20:35:24.860Z,100.00
2022-08-18T20:37:51.937Z,100.00
2022-08-18T20:40:45.122Z,100.00
2022-08-18T20:43:35.965Z,100.00
2022-08-18T20:46:26.687Z,100.00
2022-08-18T20:49:50.458Z,100.00
2022-08-18T20:52:48.970Z,100.00
2022-08-18T20:55:30.641Z,100.00
2022-08-18T20:58:05.514Z,100.00
2022-08-18T21:00:36.430Z,100.00
2022-08-18T21:03:08.734Z,100.00
2022-08-18T21:05:37.369Z,100.00
2022-08-18T21:08:13.644Z,100.00
2022-08-18T21:10:50.580Z,100.00
2022-08-18T21:13:31.510Z,100.00
2022-08-18T21:15:58.536Z,100.00
2022-08-18T21:18:26.920Z,100.00
2022-08-18T21:20:56.188Z,100.00
2022-08-18T21:23:30.631Z,100.00
2022-08-18T21:26:06.763Z,100.00
2022-08-18T21:28:36.699Z,100.00
2022-08-18T21:31:29.018Z,100.00
2022-08-18T21:34:16.021Z,100.00
2022-08-18T21:36:53.726Z,100.00
2022-08-18T21:39:21.110Z,100.00
2022-08-18T21:41:54.479Z,100.00
2022-08-18T21:44:41.868Z,100.00
2022-08-18T21:47:15.562Z,100.00
2022-08-18T21:50:17.997Z,100.00
2022-08-18T21:53:11.369Z,100.00
2022-08-18T21:55:42.796Z,100.00
2022-08-18T21:58:16.725Z,100.00
2022-08-18T22:01:06.107Z,100.00
2022-08-18T22:03:37.493Z,100.00
2022-08-18T22:06:13.164Z,100.00
2022-08-18T22:08:50.084Z,100.00
2022-08-18T22:12:00.661Z,100.00
2022-08-18T22:14:54.857Z,100.00
2022-08-18T22:17:25.567Z,100.00
2022-08-18T22:19:53.271Z,100.00
2022-08-18T22:22:40.557Z,100.00
2022-08-18T22:25:08.434Z,100.00
2022-08-18T22:27:35.509Z,100.00
2022-08-18T22:30:04.287Z,100.00
2022-08-18T22:32:38.165Z,100.00
2022-08-18T22:35:06.999Z,100.00
2022-08-18T22:37:40.284Z,100.00
2022-08-18T22:40:11.410Z,100.00
2022-08-18T22:42:39.000Z,100.00
2022-08-18T22:45:09.895Z,100.00
2022-08-18T22:47:43.157Z,100.00
2022-08-18T22:50:12.842Z,100.00
2022-08-18T22:52:43.534Z,100.00
2022-08-18T22:55:13.641Z,100.00
2022-08-18T22:57:42.068Z,100.00
2022-08-18T23:00:17.321Z,100.00
2022-08-18T23:02:45.088Z,100.00
2022-08-18T23:05:11.919Z,100.00
2022-08-18T23:07:38.821Z,100.00
2022-08-18T23:10:08.151Z,100.00
2022-08-18T23:12:40.392Z,100.00
2022-08-18T23:15:11.436Z,100.00
2022-08-18T23:17:39.486Z,100.00
2022-08-18T23:20:11.711Z,100.00
2022-08-18T23:22:40.098Z,100.00
2022-08-18T23:25:09.394Z,100.00
2022-08-18T23:27:36.677Z,100.00
2022-08-18T23:30:04.899Z,100.00
2022-08-18T23:32:32.031Z,100.00
2022-08-18T23:34:59.436Z,100.00
2022-08-18T23:37:26.545Z,100.00
2022-08-18T23:39:53.259Z,100.00
2022-08-18T23:42:23.005Z,100.00
2022-08-18T23:44:50.087Z,100.00
2022-08-18T23:47:19.560Z,100.00
2022-08-18T23:49:46.802Z,100.00
2022-08-18T23:52:13.470Z,100.00
2022-08-18T23:54:40.206Z,100.00
2022-08-18T23:57:06.920Z,100.00
2022-08-18T23:59:33.692Z,100.00
